Time,TemperatureF,DewpointF,PressureIn,WindDirection,WindDirectionDegrees,WindSpeedMPH,WindSpeedGustMPH,Humidity,HourlyPrecipIn,Conditions,Clouds,dailyrainin,SoftwareType,DateUTC
2013-01-28 00:20:00,30.6,6.2,30.41,NNW,341,0.0,0.0,35,0.00,,SKC,0.00,VWS V14.01,2013-01-28 05:20:00,
2013-01-28 00:40:00,30.6,6.8,30.41,NNW,341,0.0,5.4,36,0.00,,SKC,0.00,VWS V14.01,2013-01-28 05:40:00,
2013-01-28 01:00:00,30.7,7.0,30.41,NNW,341,0.0,5.4,36,0.00,,SKC,0.00,VWS V14.01,2013-01-28 06:00:00,
2013-01-28 01:20:00,31.1,7.9,30.41,NW,325,0.0,8.1,37,0.00,,SKC,0.00,VWS V14.01,2013-01-28 06:20:00,
2013-01-28 01:40:00,31.1,8.5,30.41,North,349,0.0,6.3,38,0.00,,SKC,0.00,VWS V14.01,2013-01-28 06:40:00,
2013-01-28 02:00:00,31.1,7.9,30.41,NNW,343,0.0,5.4,37,0.00,,SKC,0.00,VWS V14.01,2013-01-28 07:00:00,
2013-01-28 02:20:00,31.3,8.0,30.41,NNW,343,3.1,6.3,37,0.00,,SKC,0.00,VWS V14.01,2013-01-28 07:20:00,
2013-01-28 02:40:00,31.1,7.9,30.41,WSW,241,3.6,6.3,37,0.00,,SKC,0.00,VWS V14.01,2013-01-28 07:40:00,
2013-01-28 03:00:00,30.9,9.4,30.38,WNW,294,0.0,6.3,40,0.00,,SKC,0.00,VWS V14.01,2013-01-28 08:00:00,
2013-01-28 03:20:00,30.7,9.3,30.38,WNW,294,0.0,0.0,40,0.00,,SKC,0.00,VWS V14.01,2013-01-28 08:20:00,
2013-01-28 03:40:00,30.4,9.5,30.38,WNW,294,0.0,0.0,41,0.00,,SKC,0.00,VWS V14.01,2013-01-28 08:40:00,
2013-01-28 04:00:00,30.4,9.5,30.38,NNW,331,0.0,4.9,41,0.00,,SKC,0.00,VWS V14.01,2013-01-28 09:00:00,
2013-01-28 04:20:00,30.2,9.9,30.38,NNW,331,0.0,0.0,42,0.00,,SKC,0.00,VWS V14.01,2013-01-28 09:20:00,
2013-01-28 04:40:00,30.2,9.9,30.38,NNW,331,0.0,0.0,42,0.00,,SKC,0.00,VWS V14.01,2013-01-28 09:40:00,
2013-01-28 05:00:00,30.4,10.6,30.38,NNW,331,0.0,0.0,43,0.00,,SKC,0.00,VWS V14.01,2013-01-28 10:00:00,
2013-01-28 05:20:00,30.6,10.7,30.38,NNW,331,0.0,0.0,43,0.00,,SKC,0.00,VWS V14.01,2013-01-28 10:20:00,
2013-01-28 05:40:00,30.7,11.4,30.38,NNW,331,0.0,0.0,44,0.00,,SKC,0.00,VWS V14.01,2013-01-28 10:40:00,
2013-01-28 06:00:00,31.3,12.4,30.38,NNW,331,0.0,2.2,45,0.00,,SKC,0.00,VWS V14.01,2013-01-28 11:00:00,
2013-01-28 06:20:00,31.1,11.8,30.38,NNW,331,0.0,0.0,44,0.00,,SKC,0.00,VWS V14.01,2013-01-28 11:20:00,
2013-01-28 06:40:00,31.1,12.2,30.38,NNW,331,0.0,0.0,45,0.00,,SKC,0.00,VWS V14.01,2013-01-28 11:40:00,
2013-01-28 07:00:00,31.1,12.2,30.41,NNW,331,0.0,0.0,45,0.00,,SKC,0.00,VWS V14.01,2013-01-28 12:00:00,
2013-01-28 07:20:00,30.7,11.9,30.41,NNW,331,0.0,0.0,45,0.00,,SKC,0.00,VWS V14.01,2013-01-28 12:20:00,
2013-01-28 07:40:00,30.2,11.9,30.41,NNW,331,0.0,0.0,46,0.00,,SKC,0.00,VWS V14.01,2013-01-28 12:40:00,
2013-01-28 08:00:00,29.8,11.6,30.41,NNW,331,0.0,0.0,46,0.00,,SKC,0.00,VWS V14.01,2013-01-28 13:00:00,
2013-01-28 08:20:00,30.2,12.9,30.41,NNW,331,0.0,0.0,48,0.00,,SKC,0.00,VWS V14.01,2013-01-28 13:20:00,
2013-01-28 08:40:00,30.6,13.2,30.41,NNW,331,0.0,0.0,48,0.00,,SKC,0.00,VWS V14.01,2013-01-28 13:40:00,
2013-01-28 09:00:00,31.3,14.8,30.38,NNW,331,0.0,0.0,50,0.00,,SKC,0.00,VWS V14.01,2013-01-28 14:00:00,
2013-01-28 09:20:00,32.2,15.6,30.38,NNW,331,0.0,0.0,50,0.00,,SKC,0.00,VWS V14.01,2013-01-28 14:20:00,
2013-01-28 09:40:00,33.6,18.3,30.38,NNW,331,0.0,0.0,53,0.00,,SKC,0.00,VWS V14.01,2013-01-28 14:40:00,
2013-01-28 10:00:00,35.4,20.0,30.38,NNW,332,0.0,0.0,53,0.00,,SKC,0.00,VWS V14.01,2013-01-28 15:00:00,
2013-01-28 10:20:00,38.7,23.5,30.38,NNW,331,0.0,0.0,54,0.00,,SKC,0.00,VWS V14.01,2013-01-28 15:20:00,
2013-01-28 10:40:00,41.5,26.1,30.38,NNW,331,0.0,0.0,54,0.00,,SKC,0.00,VWS V14.01,2013-01-28 15:40:00,
2013-01-28 11:00:00,45.1,29.0,30.38,NNW,331,0.0,0.0,53,0.00,,SKC,0.00,VWS V14.01,2013-01-28 16:00:00,
2013-01-28 11:20:00,47.1,28.5,30.38,NNW,331,3.6,5.4,48,0.00,,SKC,0.00,VWS V14.01,2013-01-28 16:20:00,
2013-01-28 11:40:00,51.6,22.7,30.38,NNW,331,4.9,4.9,32,0.00,,SKC,0.00,VWS V14.01,2013-01-28 16:40:00,
2013-01-28 12:00:00,53.4,19.4,30.38,WNW,301,2.7,6.3,26,0.00,,SKC,0.00,VWS V14.01,2013-01-28 17:00:00,
2013-01-28 12:20:00,55.0,14.7,30.38,NNW,333,3.6,4.9,20,0.00,,SKC,0.00,VWS V14.01,2013-01-28 17:20:00,
2013-01-28 12:40:00,54.7,14.4,30.35,WNW,288,4.0,5.4,20,0.00,,SKC,0.00,VWS V14.01,2013-01-28 17:40:00,
2013-01-28 13:00:00,54.3,11.7,30.35,NW,315,4.9,7.2,18,0.00,,SKC,0.00,VWS V14.01,2013-01-28 18:00:00,
2013-01-28 13:20:00,55.2,12.5,30.32,NNW,340,5.4,6.3,18,0.00,,SKC,0.00,VWS V14.01,2013-01-28 18:20:00,
2013-01-28 13:40:00,54.0,11.4,30.32,NW,311,2.7,8.1,18,0.00,,SKC,0.00,VWS V14.01,2013-01-28 18:40:00,
2013-01-28 14:00:00,53.6,11.1,30.32,SSW,209,4.0,7.6,18,0.00,,SKC,0.00,VWS V14.01,2013-01-28 19:00:00,
2013-01-28 14:20:00,52.7,10.4,30.32,North,0,3.1,6.3,18,0.00,,SKC,0.00,VWS V14.01,2013-01-28 19:20:00,
2013-01-28 14:40:00,52.7,10.4,30.32,WSW,249,0.0,3.6,18,0.00,,SKC,0.00,VWS V14.01,2013-01-28 19:40:00,
2013-01-28 15:00:00,52.0,9.8,30.32,ESE,113,6.3,8.1,18,0.00,,SKC,0.00,VWS V14.01,2013-01-28 20:00:00,
2013-01-28 15:20:00,52.2,10.0,30.32,East,100,2.7,8.1,18,0.00,,SKC,0.00,VWS V14.01,2013-01-28 20:20:00,
2013-01-28 15:40:00,51.1,10.3,30.29,ESE,107,4.9,4.9,19,0.00,,SKC,0.00,VWS V14.01,2013-01-28 20:40:00,
2013-01-28 16:00:00,49.5,11.2,30.29,ESE,104,0.0,6.3,21,0.00,,SKC,0.00,VWS V14.01,2013-01-28 21:00:00,
2013-01-28 16:20:00,47.7,10.7,30.32,SE,138,0.0,0.0,22,0.00,,SKC,0.00,VWS V14.01,2013-01-28 21:20:00,
2013-01-28 16:40:00,45.5,11.7,30.29,ESE,117,0.0,0.0,25,0.00,,SKC,0.00,VWS V14.01,2013-01-28 21:40:00,
2013-01-28 17:00:00,44.6,11.0,30.29,ESE,107,0.0,4.0,25,0.00,,SKC,0.00,VWS V14.01,2013-01-28 22:00:00,
2013-01-28 17:20:00,43.5,12.6,30.29,ESE,107,0.0,0.0,28,0.00,,SKC,0.00,VWS V14.01,2013-01-28 22:20:00,
2013-01-28 17:40:00,42.1,12.1,30.32,ESE,107,0.0,0.0,29,0.00,,SKC,0.00,VWS V14.01,2013-01-28 22:40:00,
2013-01-28 18:00:00,39.9,11.0,30.32,ESE,107,0.0,0.0,30,0.00,,SKC,0.00,VWS V14.01,2013-01-28 23:00:00,
2013-01-28 18:20:00,38.7,10.6,30.32,ESE,107,0.0,0.0,31,0.00,,SKC,0.00,VWS V14.01,2013-01-28 23:20:00,
2013-01-28 18:40:00,37.2,10.1,30.32,ESE,107,0.0,0.0,32,0.00,,SKC,0.00,VWS V14.01,2013-01-28 23:40:00,
2013-01-28 19:00:00,36.1,9.8,30.32,ESE,107,0.0,0.0,33,0.00,,SKC,0.00,VWS V14.01,2013-01-29 00:00:00,
2013-01-28 19:20:00,36.0,10.3,30.32,ESE,107,0.0,0.0,34,0.00,,SKC,0.00,VWS V14.01,2013-01-29 00:20:00,
2013-01-28 19:40:00,35.1,11.4,30.32,ESE,107,0.0,0.0,37,0.00,,SKC,0.00,VWS V14.01,2013-01-29 00:40:00,
2013-01-28 20:00:00,34.5,12.1,30.32,ESE,107,0.0,0.0,39,0.00,,SKC,0.00,VWS V14.01,2013-01-29 01:00:00,
2013-01-28 20:20:00,34.0,12.2,30.32,ESE,107,0.0,0.0,40,0.00,,SKC,0.00,VWS V14.01,2013-01-29 01:20:00,
2013-01-28 20:40:00,33.8,12.1,30.32,ESE,107,0.0,0.0,40,0.00,,SKC,0.00,VWS V14.01,2013-01-29 01:40:00,
2013-01-28 21:00:00,33.6,12.4,30.32,ESE,107,0.0,0.0,41,0.00,,SKC,0.00,VWS V14.01,2013-01-29 02:00:00,
2013-01-28 21:20:00,33.3,12.7,30.32,ESE,107,0.0,0.0,42,0.00,,SKC,0.00,VWS V14.01,2013-01-29 02:20:00,
2013-01-28 21:40:00,32.9,12.3,30.32,ESE,107,0.0,0.0,42,0.00,,SKC,0.00,VWS V14.01,2013-01-29 02:40:00,
2013-01-28 22:00:00,32.7,12.7,30.29,ESE,107,0.0,0.0,43,0.00,,SKC,0.00,VWS V14.01,2013-01-29 03:00:00,
2013-01-28 22:20:00,32.5,12.5,30.29,ESE,107,0.0,0.0,43,0.00,,SKC,0.00,VWS V14.01,2013-01-29 03:20:00,
2013-01-28 22:40:00,32.4,12.9,30.29,ESE,107,0.0,0.0,44,0.00,,SKC,0.00,VWS V14.01,2013-01-29 03:40:00,
2013-01-28 23:00:00,32.0,13.1,30.29,ESE,107,0.0,0.0,45,0.00,,SKC,0.00,VWS V14.01,2013-01-29 04:00:00,
2013-01-28 23:20:00,32.0,13.6,30.29,ESE,107,0.0,0.0,46,0.00,,SKC,0.00,VWS V14.01,2013-01-29 04:20:00,
2013-01-28 23:40:00,32.0,13.6,30.29,ESE,107,0.0,0.0,46,0.00,,SKC,0.00,VWS V14.01,2013-01-29 04:40:00,